Home > Products > Valid Products > MTR

000
SAUS41 KPHI 270255
MTRACY
METAR KACY 270254Z 02017G26KT 9SM OVC011 M01/M03 A2963 RMK AO2 PK
WND 36028/0231 SNB31E42 SLP034 P0000 60000 T10061028 58013





000
SAUS41 KPHI 270255
MTR12N
METAR K12N 270254Z AUTO 04007G16KT 360V070 M07/M10 A2979 RMK AO1
SLP105 T10721100 58019





000
SAUS41 KPHI 270156
MTRACY
METAR KACY 270154Z 02020G27KT 10SM OVC012 M01/M02 A2965 RMK AO2 PK
WND 03028/0132 SLP040 T10061022





000
SAUS41 KPHI 270155
MTR12N
METAR K12N 270154Z AUTO 03009G17KT 340V050 M07/M09 A2981 RMK AO1
SLP113 T10721094





000
SAUS41 KPHI 270057
MTRACY
METAR KACY 270054Z 02017G22KT 5SM BR OVC011 00/M01 A2965 RMK AO2 PK
WND 04028/0035 CIG 007V015 SLP042 T00001011





000
SAUS41 KPHI 270055
MTR12N
METAR K12N 270054Z AUTO VRB06KT M08/M10 A2984 RMK AO1 SLP122
T10781100





000
SAUS41 KPHI 270047
MTRACY
SPECI KACY 270045Z 02018G25KT 5SM BR BKN011 OVC014 00/M01 A2966 RMK
AO2 PK WND 04028/0035 CIG 007V012 T00001011





000
SAUS41 KPHI 262357
MTRACY
METAR KACY 262354Z 03018G28KT 4SM BR OVC009 00/M01 A2967 RMK AO2 PK
WND 04028/2352 CIG 006V013 SLP047 60009 I1002 I6005 T00001011 10028
21006 56008





000
SAUS41 KPHI 262355
MTR12N
METAR K12N 262354Z AUTO VRB06G15KT M08/M10 A2985 RMK AO1 SLP125
P0001 60009 T10781100 11078 21089 58000





000
SAUS41 KPHI 262256
MTRACY
METAR KACY 262254Z 02017KT 4SM BR OVC008 00/M01 A2968 RMK AO2 SLP052
I1001 T00001011





000
SAUS41 KPHI 262255
MTR12N
METAR K12N 262254Z AUTO 04008KT M08/M10 A2985 RMK AO1 SLP125
T10781100





000
SAUS41 KPHI 262156
MTRACY
METAR KACY 262154Z 03017KT 4SM BR OVC007 00/M01 A2967 RMK AO2 PK WND
04028/2112 SLP049 I1000 T00001011





000
SAUS41 KPHI 262155
MTR12N
METAR K12N 262154Z AUTO VRB04KT M08/M11 A2985 RMK AO1 SLP125 P0002
T10831106





000
SAUS41 KPHI 262056
MTRACY
METAR KACY 262054Z 03018G29KT 3SM BR OVC007 00/M01 A2969 RMK AO2 PK
WND 02029/2046 SNE1957 SLP055 P0001 60009 I1002 I3002 T00001011
58005





000
SAUS41 KPHI 262056
MTR12N
METAR K12N 262054Z AUTO M09/M11 A2985 RMK AO1 SLP125 P0003 60006
T10891106 56013





000
SAUS41 KPHI 262013
MTRACY
SPECI KACY 262010Z 03018G24KT 2SM BR OVC006 00/M01 A2969 RMK AO2
SNE1957 P0001 I1001 T00001011





000
SAUS41 KPHI 261955
MTR12N
METAR K12N 261954Z AUTO 03007KT M09/M11 A2986 RMK AO1 SLP127 P0002
T10891111





000
SAUS41 KPHI 261955
MTRACY
METAR KACY 261954Z 04019G24KT 1 1/2SM -SN BR OVC006 00/M01 A2970 RMK
AO2 RAE06SNB06 SLP057 P0006 T00001011





000
SAUS41 KPHI 261953
MTRACY
SPECI KACY 261950Z 03017KT 1 1/2SM -SN BR OVC006 00/M01 A2971 RMK
AO2 RAE06SNB06 P0006





000
SAUS41 KPHI 261931
MTRACY
SPECI KACY 261930Z 03014G21KT 1 1/4SM -SN BR BKN006 OVC010 01/M01
A2971 RMK AO2 RAE06SNB06 P0006 T00061006





000
SAUS41 KPHI 261909
MTRACY
SPECI KACY 261907Z 03015G22KT 1 3/4SM -SN BR BKN008 OVC012 01/00
A2972 RMK AO2 RAE06SNB06 P0003 T00060000





000
SAUS41 KPHI 261857
MTRACY
METAR KACY 261854Z 02014G24KT 2SM RA BR BKN008 OVC011 02/01 A2971
RMK AO2 PK WND 05030/1816 UPB26E36RAB36 CIG 005V009 SLP060 P0002
T00170006





000
SAUS41 KPHI 261855
MTR12N
METAR K12N 261854Z AUTO VRB05KT M08/M11 A2987 RMK AO1 SLP133 P0001
T10831111





000
SAUS41 KPHI 261841
MTRACY
SPECI KACY 261839Z 05021G29KT 2 1/2SM -RA BR OVC008 03/01 A2971 RMK
AO2 PK WND 05030/1816 UPB26E36RAB36 CIG 006V012 P0000 T00280011





000
SAUS41 KPHI 261756
MTRACY
METAR KACY 261754Z 05021G29KT 7SM OVC008 03/01 A2974 RMK AO2 PK WND
05032/1744 SLP070 60009 T00280011 10028 21006 56034





000
SAUS41 KPHI 261755
MTR12N
METAR K12N 261754Z AUTO 03007G16KT M09/M12 A2989 RMK AO1 SLP136
P0002 60009 T10891117 11083 21094 58029





000
SAUS41 KPHI 261655
MTRACY
METAR KACY 261654Z 05021G27KT 10SM OVC007 02/01 A2976 RMK AO2 PK WND
06029/1623 UPE10 SLP077 P0000 T00220011





000
SAUS41 KPHI 261655
MTR12N
METAR K12N 261654Z AUTO 03007KT 350V080 M09/M12 A2991 RMK AO1 PRESFR
SLP145 P0003 T10891117





000
SAUS41 KPHI 261557
MTRACY
METAR KACY 261554Z 05017G25KT 9SM UP OVC008 02/01 A2980 RMK AO2 PK
WND 06028/1526 RAB40E43UPB43SNE40 CIG 007V012 SLP093 P0003 T00170006





000
SAUS41 KPHI 261555
MTR12N
METAR K12N 261554Z AUTO VRB04KT M09/M12 A2995 RMK AO1 SLP158 P0002
T10891117





000
SAUS41 KPHI 261526
MTRACY
SPECI KACY 261524Z 06018G21KT 3SM -SN BR OVC006 01/00 A2982 RMK AO2
P0002 T00110000





000
SAUS41 KPHI 261516
MTRACY
SPECI KACY 261513Z 05015G21KT 2SM -SN BR OVC006 01/00 A2984 RMK AO2
P0002 T00110000





000
SAUS41 KPHI 261455
MTRACY
METAR KACY 261454Z 05015KT 1SM -SN BR OVC006 01/00 A2984 RMK AO2
SLP104 P0004 60006 T00060000 56017





000
SAUS41 KPHI 261455
MTR12N
METAR K12N 261454Z AUTO 03006KT M09/M12 A2997 RMK AO1 SLP166 P0001
60002 T10941117 51001





000
SAUS41 KPHI 261451
MTRACY
SPECI KACY 261449Z 06014G24KT 1 1/4SM -SN BR OVC006 01/00 A2984 RMK
AO2 P0003





000
SAUS41 KPHI 261439
MTRACY
SPECI KACY 261437Z 06017G22KT 1 3/4SM -SN BR OVC006 01/00 A2985 RMK
AO2 P0003 T00060000





000
SAUS41 KPHI 261431
MTRACY
SPECI KACY 261430Z 06014G20KT 1 1/4SM -SN BR OVC006 01/00 A2985 RMK
AO2 P0003 T00060000





000
SAUS41 KPHI 261355
MTR12N
METAR K12N 261354Z AUTO VRB04KT M09/M13 A2997 RMK AO1 SLP166
T10941128





000
SAUS41 KPHI 261355
MTRACY
METAR KACY 261354Z 06014G22KT 3/4SM -SN BR BKN008 OVC015 01/M01
A2987 RMK AO2 SLP114 P0002 T00061006





000
SAUS41 KPHI 261350
MTRACY
SPECI KACY 261348Z 06015G21KT 3/4SM -SN BR BKN008 OVC015 01/M01
A2987 RMK AO2 P0002





000
SAUS41 KPHI 261329
MTRACY
SPECI KACY 261327Z 05014KT 3/4SM -SN BR FEW012 BKN017 OVC024 01/M01
A2988 RMK AO2 P0001 T00061011





000
SAUS41 KPHI 261325
MTRACY
SPECI KACY 261322Z 05014G19KT 1 1/2SM -SN BR FEW012 BKN019 OVC024
01/M02 A2988 RMK AO2 P0000 T00061017





000
SAUS41 KPHI 261306
MTRACY
SPECI KACY 261305Z 06012G22KT 2 1/2SM -SN BR SCT012 OVC024 01/M02
A2989 RMK AO2 P0000 T00061017





000
SAUS41 KPHI 261257
MTRACY
METAR KACY 261254Z 05015G23KT 1 3/4SM -SN BR SCT012 OVC025 00/M02
A2989 RMK AO2 SNB45 SLP121 P0000 T00001022





000
SAUS41 KPHI 261255
MTR12N
METAR K12N 261254Z AUTO VRB06KT M09/M12 A2997 RMK AO1 SLP165 P0001
T10941122





000
SAUS41 KPHI 261157
MTRACY
METAR KACY 261154Z AUTO 06014G21KT 10SM OVC011 M01/M02 A2989 RMK AO2
PK WND 04026/1121 SNE08 SLP122 P0000 60000 T10061022 10022 21006
56003 TSNO





000
SAUS41 KPHI 261155
MTR12N
METAR K12N 261154Z AUTO 03005KT M09/M12 A2997 RMK AO1 SLP164 P0001
60005 70005 T10941117 11050 21094 56004





000
SAUS41 KPHI 261057
MTRACY
METAR KACY 261054Z AUTO 05016G22KT 4SM -SN BR BKN011 OVC044 M01/M03
A2989 RMK AO2 PK WND 05026/1011 SLP123 P0000 T10061028 TSNO





000
SAUS41 KPHI 261055
MTR12N
METAR K12N 261054Z AUTO VRB04KT M09/M11 A2997 RMK AO1 SLP164 P0002
T10891111





000
SAUS41 KPHI 261052
MTRACY
SPECI KACY 261051Z AUTO 05015G22KT 4SM -SN BR BKN012 OVC040 M01/M03
A2989 RMK AO2 PK WND 05026/1011 P0000 TSNO





000
SAUS41 KPHI 261045
MTRACY
SPECI KACY 261043Z AUTO 05018G23KT 4SM -SN BR SCT012 OVC031 M01/M03
A2989 RMK AO2 PK WND 05026/1011 P0000 T10061028 TSNO





000
SAUS41 KPHI 261037
MTRACY
SPECI KACY 261036Z AUTO 05017G24KT 3SM -SN BR SCT013 OVC029 M01/M03
A2989 RMK AO2 PK WND 05026/1011 P0000 T10061028 TSNO





000
SAUS41 KPHI 261026
MTRACY
SPECI KACY 261025Z AUTO 05018G25KT 2 1/2SM -SN BR FEW013 OVC027
M01/M03 A2989 RMK AO2 PK WND 05026/1011 P0000 T10061028 TSNO





000
SAUS41 KPHI 261013
MTRACY
SPECI KACY 261010Z AUTO 05016G23KT 3SM -SN BR FEW014 OVC029 00/M02
A2989 RMK AO2 P0000 T00001022 TSNO





000
SAUS41 KPHI 261007
MTRACY
SPECI KACY 261006Z AUTO 06018G25KT 2 1/2SM -SN BR OVC031 00/M02
A2989 RMK AO2 P0000 T00001022 TSNO





000
SAUS41 KPHI 260955
MTRACY
METAR KACY 260954Z AUTO 06018G26KT 3SM -SN OVC035 01/M02 A2990 RMK
AO2 PK WND 06027/0935 SNB34 SLP125 P0000 T00061022 TSNO





000
SAUS41 KPHI 260955
MTR12N
METAR K12N 260954Z AUTO VRB05KT M09/M12 A2998 RMK AO1 SLP165 P0002
T10891117





000
SAUS41 KPHI 260857
MTRACY
METAR KACY 260854Z AUTO 06014KT 10SM BKN048 OVC055 02/M04 A2991 RMK
AO2 SLP128 T00171039 58009 TSNO





000
SAUS41 KPHI 260855
MTR12N
METAR K12N 260854Z AUTO VRB03KT M08/M13 A2998 RMK AO1 SLP167
T10781133 50005





000
SAUS41 KPHI 260756
MTRACY
METAR KACY 260754Z AUTO 07011KT 10SM OVC045 01/M04 A2993 RMK AO2
SLP136 T00111039 TSNO





000
SAUS41 KPHI 260755
MTR12N
METAR K12N 260754Z AUTO 03006KT M07/M14 A2999 RMK AO1 SLP166
T10671144





000
SAUS41 KPHI 260655
MTR12N
METAR K12N 260654Z AUTO VRB05KT M06/M14 A2999 RMK AO1 SLP165
T10611139





000
SAUS41 KPHI 260655
MTRACY
METAR KACY 260654Z AUTO 05015G19KT 10SM BKN048 OVC085 01/M03 A2994
RMK AO2 SLP140 T00111033 TSNO





000
SAUS41 KPHI 260556
MTRACY
METAR KACY 260554Z AUTO 05013KT 10SM OVC045 02/M04 A2993 RMK AO2
SLP137 T00221039 10056 20022 50004 TSNO





000
SAUS41 KPHI 260555
MTR12N
METAR K12N 260554Z AUTO VRB06KT M05/M13 A2997 RMK AO1 SLP160
T10501133 11022 21050 50001





000
SAUS41 KPHI 260456
MTRACY
METAR KACY 260454Z AUTO 06008KT 10SM OVC044 03/M02 A2994 RMK AO2
SLP139 T00281022 401000000 TSNO





000
SAUS41 KPHI 260456
MTR12N
METAR K12N 260454Z AUTO 00000KT M04/M13 A2997 RMK AO1 SLP161
T10391133 400441039





000
SAUS41 KPHI 260356
MTRACY
METAR KACY 260354Z AUTO 05008KT 10SM OVC043 04/M01 A2994 RMK AO2
SLP138 T00391006 TSNO





000
SAUS41 KPHI 260355
MTR12N
METAR K12N 260354Z AUTO VRB03KT M04/M14 A2996 RMK AO1 SLP158
T10391139





000
SAUS41 KPHI 260256
MTRACY
METAR KACY 260254Z 04006KT 10SM OVC043 04/M01 A2992 RMK AO2 SLP132
T00441006 50009





000
SAUS41 KPHI 260255
MTR12N
METAR K12N 260254Z AUTO 04005KT M03/M13 A2997 RMK AO1 SLP158
T10331128 51021





000
SAUS41 KPHI 260155
MTRACY
METAR KACY 260154Z 04004KT 10SM OVC041 05/M01 A2993 RMK AO2 SLP134
T00501006





000
SAUS41 KPHI 260155
MTR12N
METAR K12N 260154Z AUTO VRB03KT M03/M13 A2995 RMK AO1 SLP152
T10281128





000
SAUS41 KPHI 260055
MTRACY
METAR KACY 260054Z 08004KT 10SM OVC041 04/M01 A2991 RMK AO2 SLP129
T00441006





000
SAUS41 KPHI 260055
MTR12N
METAR K12N 260054Z AUTO 04004KT M04/M12 A2994 RMK AO1 SLP149
T10391117





000
SAUS41 KPHI 252355
MTR12N
METAR K12N 252354Z AUTO 35003KT M02/M13 A2990 RMK AO1 SLP137
T10221128 10044 21028 53034





000
SAUS41 KPHI 252355
MTRACY
METAR KACY 252354Z 03004KT 10SM FEW045 OVC055 05/M01 A2989 RMK AO2
SLP123 T00501006 10100 20050 53025





000
SAUS41 KPHI 252257
MTRACY
METAR KACY 252254Z 00000KT 10SM OVC050 06/M01 A2986 RMK AO2 SLP113
T00611011





000
SAUS41 KPHI 252255
MTR12N
METAR K12N 252254Z AUTO 00000KT M02/M12 A2987 RMK AO1 SLP124
T10171117





000
SAUS41 KPHI 252155
MTRACY
METAR KACY 252154Z 33005KT 10SM OVC048 07/M01 A2984 RMK AO2 SLP105
T00721006





000
SAUS41 KPHI 252155
MTR12N
METAR K12N 252154Z AUTO VRB04KT 00/M12 A2983 RMK AO1 SLP112
T00001122





000
SAUS41 KPHI 252055
MTRACY
METAR KACY 252054Z 29009KT 10SM BKN048 08/M01 A2982 RMK AO2 SLP098
T00831011 53006





000
SAUS41 KPHI 252055
MTR12N
METAR K12N 252054Z AUTO 36007KT 02/M13 A2980 RMK AO1 SLP102
T00171128 53009





000
SAUS41 KPHI 251955
MTRACY
METAR KACY 251954Z 28011G19KT 10SM BKN048 09/M02 A2981 RMK AO2
SLP094 T00941017





000
SAUS41 KPHI 251955
MTR12N
METAR K12N 251954Z AUTO 35006KT 03/M12 A2979 RMK AO1 SLP097
T00281122





000
SAUS41 KPHI 251855
MTR12N
METAR K12N 251854Z AUTO 34007KT 290V040 03/M12 A2978 RMK AO1 SLP092
T00331117





000
SAUS41 KPHI 251855
MTRACY
METAR KACY 251854Z 27010KT 10SM BKN045 09/M01 A2980 RMK AO2 SLP092
T00891011





000
SAUS41 KPHI 251755
MTR12N
METAR K12N 251754Z AUTO 31009G17KT 03/M12 A2978 RMK AO1 SLP092
T00331122 10039 21006 51020





000
SAUS41 KPHI 251755
MTRACY
METAR KACY 251754Z 29015KT 10SM BKN045 08/M01 A2980 RMK AO2 SLP092
T00781011 10094 20011 50003





000
SAUS41 KPHI 251657
MTRACY
METAR KACY 251654Z 29015G21KT 10SM SCT040 08/M01 A2981 RMK AO2 PK
WND 30026/1636 SLP093 T00831006





000
SAUS41 KPHI 251655
MTR12N
METAR K12N 251654Z AUTO 34007KT 290V010 03/M10 A2976 RMK AO1 SLP087
T00331100





000
SAUS41 KPHI 251556
MTRACY
METAR KACY 251554Z 28013G21KT 10SM FEW046 07/M01 A2981 RMK AO2
SLP096 T00671006





000
SAUS41 KPHI 251555
MTR12N
METAR K12N 251554Z AUTO 03/M11 A2975 RMK AO1 SLP082 T00281106





000
SAUS41 KPHI 251457
MTRACY
METAR KACY 251454Z 26009KT 10SM CLR 05/M01 A2979 RMK AO2 SLP089
T00501011 50012





000
SAUS41 KPHI 251456
MTR12N
METAR K12N 251454Z AUTO 32008G16KT 290V010 03/M07 A2972 RMK AO1
SLP072 T00331072 51028





000
SAUS41 KPHI 251356
MTRACY
METAR KACY 251354Z 25008KT 10SM BKN060 03/M02 A2980 RMK AO2 SLP092
T00331017





000
SAUS41 KPHI 251355
MTR12N
METAR K12N 251354Z AUTO 00000KT 02/M03 A2970 RMK AO1 SLP065
T00221033





000
SAUS41 KPHI 251255
MTR12N
METAR K12N 251254Z AUTO 18003KT 00/M03 A2967 RMK AO1 SLP059
T00001033





000
SAUS41 KPHI 251255
MTRACY
METAR KACY 251254Z 25009KT 10SM BKN049 OVC055 02/M02 A2979 RMK AO2
SLP087 T00171022





000
SAUS41 KPHI 251156
MTRACY
METAR KACY 251154Z 25010KT 10SM BKN060 01/M03 A2976 RMK AO2 SLP077
70005 T00111028 10011 20000 53028





000
SAUS41 KPHI 251155
MTR12N
METAR K12N 251154Z AUTO 17003KT M01/M04 A2963 RMK AO1 SLP045 70004
T10061039 10011 21011 53018





000
SAUS41 KPHI 251057
MTRACY
METAR KACY 251054Z 25010KT 10SM CLR 01/M03 A2972 RMK AO2 SLP065
T00061028





000
SAUS41 KPHI 251055
MTR12N
METAR K12N 251054Z AUTO 20003KT M01/M04 A2961 RMK AO1 SLP035
T10061044





000
SAUS41 KPHI 250955
MTRACY
METAR KACY 250954Z 25008KT 9SM CLR 01/M03 A2969 RMK AO2 SLP056
T00061028





000
SAUS41 KPHI 250955
MTR12N
METAR K12N 250954Z AUTO VRB04KT M01/M04 A2960 RMK AO1 SLP031
T10061044





000
SAUS41 KPHI 250855
MTRACY
METAR KACY 250854Z 26008KT 7SM CLR 01/M03 A2967 RMK AO2 SLP048
T00061028 51023





000
SAUS41 KPHI 250855
MTR12N
METAR K12N 250854Z AUTO VRB04KT M01/M04 A2958 RMK AO1 SLP025
T10061044 51025





000
SAUS41 KPHI 250756
MTRACY
METAR KACY 250754Z AUTO 26008KT 8SM OVC075 01/M03 A2966 RMK AO2
SLP043 T00111028 TSNO





000
SAUS41 KPHI 250755
MTR12N
METAR K12N 250754Z AUTO VRB04KT 01/M04 A2956 RMK AO1 SLP019
T00061044





000
SAUS41 KPHI 250655
MTRACY
METAR KACY 250654Z 26007KT 8SM OVC075 01/M03 A2964 RMK AO2 SLP036
T00061028





000
SAUS41 KPHI 250655
MTR12N
METAR K12N 250654Z AUTO VRB04KT 01/M04 A2954 RMK AO1 SLP010
T00061039





000
SAUS41 KPHI 250556
MTRACY
METAR KACY 250554Z 26007KT 9SM CLR 01/M03 A2960 RMK AO2 SLP025
T00061033 10022 20006 51024





000
SAUS41 KPHI 250555
MTR12N
METAR K12N 250554Z AUTO 00000KT 01/M04 A2950 RMK AO1 SLP999
T00111044 10011 21022 53012





000
SAUS41 KPHI 250455
MTR12N
METAR K12N 250454Z AUTO VRB03KT 01/M04 A2949 RMK AO1 SLP995
T00111044 400281022





000
SAUS41 KPHI 250455
MTRACY
METAR KACY 250454Z 28010KT 10SM CLR 01/M03 A2958 RMK AO2 SLP016
T00111033 400330006





000
SAUS41 KPHI 250356
MTRACY
METAR KACY 250354Z 27009KT 9SM CLR 01/M03 A2956 RMK AO2 SLP011
T00111028





000
SAUS41 KPHI 250356
MTR12N
METAR K12N 250354Z AUTO VRB03KT 01/M04 A2948 RMK AO1 SLP992
T00061044





000
SAUS41 KPHI 250256
MTRACY
METAR KACY 250254Z 26010KT 9SM CLR 01/M02 A2953 RMK AO2 SLP001
T00111017 53026





000
SAUS41 KPHI 250255
MTR12N
METAR K12N 250254Z AUTO VRB04KT 01/M05 A2947 RMK AO1 SLP989
T00061050 51025





000
SAUS41 KPHI 250156
MTRACY
METAR KACY 250154Z 26011KT 7SM CLR 01/M01 A2949 RMK AO2 SLP988
T00111006





000
SAUS41 KPHI 250156
MTRACY
METAR KACY 250154Z 26011KT 7SM CLR 01/M01 A2949 RMK AO2 SLP988
T00111006





000
SAUS41 KPHI 250155
MTR12N
METAR K12N 250154Z AUTO VRB05KT 01/M05 A2944 RMK AO1 SLP980
T00061050





000
SAUS41 KPHI 250155
MTR12N
METAR K12N 250154Z AUTO VRB05KT 01/M05 A2944 RMK AO1 SLP980
T00061050





000
SAUS41 KPHI 250056
MTRACY
METAR KACY 250054Z 26009KT 5SM BR CLR 02/M01 A2948 RMK AO2 SLP982
T00171006





000
SAUS41 KPHI 250055
MTR12N
METAR K12N 250054Z AUTO 00000KT M01/M03 A2942 RMK AO1 SLP972
T10061033





000
SAUS41 KPHI 242355
MTRACY
METAR KACY 242354Z 27008KT 5SM BR CLR 02/01 A2946 RMK AO2 SLP975
60001 T00220006 10033 20022 53025





000
SAUS41 KPHI 242355
MTR12N
METAR K12N 242354Z AUTO 00000KT M01/M03 A2939 RMK AO1 SLP963
T10061028 10028 21006 51028





000
SAUS41 KPHI 242257
MTRACY
METAR KACY 242254Z 28012KT 7SM SCT011 BKN049 03/01 A2942 RMK AO2
UPE38RAB30E39 PRESRR SLP964 P0000 T00280011





000
SAUS41 KPHI 242255
MTR12N
METAR K12N 242254Z AUTO VRB03KT 02/M02 A2937 RMK AO1 SLP955
T00221017





000
SAUS41 KPHI 242156
MTRACY
METAR KACY 242154Z 29011KT 5SM UP BR BKN047 OVC070 03/01 A2938 RMK
AO2 UPB02E20B35 SLP950 P0001 T00280011





000
SAUS41 KPHI 242155
MTR12N
METAR K12N 242154Z AUTO 00000KT 02/M01 A2934 RMK AO1 SLP943
T00221006





000
SAUS41 KPHI 242123
MTRACY
SPECI KACY 242120Z 30011KT 5SM BR OVC009 03/02 A2937 RMK AO2
UPB02E20 P0000 T00280017





000
SAUS41 KPHI 242117
MTRACY
SPECI KACY 242114Z 31012KT 5SM UP BR SCT012 BKN019 OVC043 03/02
A2937 RMK AO2 UPB02 P0000 T00280017





000
SAUS41 KPHI 242055
MTRACY
METAR KACY 242054Z 30014G21KT 5SM BR OVC009 03/01 A2936 RMK AO2
UPB22E26B40E44RAB26E40 CIG 005V013 SLP943 P0000 60000 T00280011
53016





000
SAUS41 KPHI 242055
MTR12N
METAR K12N 242054Z AUTO 35003KT 02/M01 A2931 RMK AO1 SLP933
T00221006 55017





000
SAUS41 KPHI 242042
MTRACY
SPECI KACY 242040Z 29013KT 3SM UP BR OVC006 03/02 A2936 RMK AO2
UPB22E26B40RAB26E40 CIG 005V010 P0000 T00280017





000
SAUS41 KPHI 242032
MTRACY
SPECI KACY 242030Z 30013KT 2 1/2SM -RA BR OVC006 03/02 A2935 RMK AO2
UPB22E26RAB26 P0000 T00280017





000
SAUS41 KPHI 241956
MTRACY
METAR KACY 241954Z 32015G24KT 8SM OVC005 02/01 A2931 RMK AO2 SLP926
T00220011





000
SAUS41 KPHI 241955
MTR12N
METAR K12N 241954Z AUTO 36006KT 03/00 A2930 RMK AO1 SLP932 T00280000





000
SAUS41 KPHI 241855
MTR12N
METAR K12N 241854Z AUTO 33004KT 02/M01 A2935 RMK AO1 SLP947
T00221006





000
SAUS41 KPHI 241855
MTRACY
METAR KACY 241854Z 35010KT 10SM OVC006 03/02 A2929 RMK AO2 PRESFR
SLP919 T00280017





000
SAUS41 KPHI 241757
MTRACY
METAR KACY 241754Z 35012KT 10SM OVC006 03/02 A2932 RMK AO2 SLP927
60004 T00280017 10028 20022 58041





000
SAUS41 KPHI 241755
MTR12N
METAR K12N 241754Z AUTO 04005KT 01/M01 A2936 RMK AO1 PRESFR SLP951
60004 T00061011 10006 21011 58056





000
SAUS41 KPHI 241657
MTRACY
METAR KACY 241654Z 34012KT 1 1/2SM BR OVC005 02/02 A2937 RMK AO2 SFC
VIS 2 UPB04E40 SLP947 P0000 T00220017





000
SAUS41 KPHI 241656
MTR12N
METAR K12N 241654Z AUTO VRB05KT 00/M01 A2944 RMK AO1 SLP980 P0001
T00001011 $





000
SAUS41 KPHI 241641
MTRACY
SPECI KACY 241639Z 34013KT 1 3/4SM UP BR OVC005 02/02 A2941 RMK AO2
UPB04 CIG 004V008 P0000 T00220017





000
SAUS41 KPHI 241555
MTR12N
METAR K12N 241554Z AUTO VRB03KT 00/M02 A2950 RMK AO1 SLP998
T00001017 $





000
SAUS41 KPHI 241555
MTRACY
METAR KACY 241554Z 34013KT 2SM BR OVC005 02/01 A2940 RMK AO2
UPB09E28RAB12E20SNE09 SLP957 P0001 T00220011





000
SAUS41 KPHI 241527
MTRACY
SPECI KACY 241524Z 35012KT 2SM UP BR OVC005 02/01 A2943 RMK AO2
UPB09RAB12E20SNE09 P0001 T00220011





000
SAUS41 KPHI 241456
MTRACY
METAR KACY 241454Z 36013KT 1 1/2SM -SN BR OVC004 02/01 A2944 RMK AO2
RAE1355UPB39E52SNB52 SLP968 P0000 60003 T00220011 56020





000
SAUS41 KPHI 241455
MTR12N
METAR K12N 241454Z AUTO VRB04KT M01/M02 A2952 RMK AO1 SLP008 60003
T10061017 58029 $





000
SAUS41 KPHI 241453
MTRACY
SPECI KACY 241450Z 36014KT 1 3/4SM UP BR OVC004 02/01 A2943 RMK AO2
RAE1355UPB39 P0000





000
SAUS41 KPHI 241446
MTRACY
SPECI KACY 241444Z 01012KT 2SM UP BR OVC005 02/01 A2943 RMK AO2
RAE1355UPB39 P0000 T00220011





000
SAUS41 KPHI 241424
MTRACY
SPECI KACY 241422Z 36012KT 8SM OVC005 02/02 A2946 RMK AO2 RAE1355
P0000 T00220017





000
SAUS41 KPHI 241357
MTRACY
METAR KACY 241354Z 02011KT 10SM -RA OVC004 02/02 A2944 RMK AO2 RAB22
SLP969 P0002 T00220017





000
SAUS41 KPHI 241355
MTR12N
METAR K12N 241354Z AUTO 02003KT M01/M02 A2956 RMK AO1 SLP019 P0001
T10111017 $





000
SAUS41 KPHI 241257
MTRACY
METAR KACY 241254Z 03012KT 8SM OVC004 02/01 A2948 RMK AO2
RAE33UPB08E12B33E36 SLP984 P0001 T00220011





000
SAUS41 KPHI 241255
MTR12N
METAR K12N 241254Z AUTO VRB05KT M01/M02 A2958 RMK AO1 PRESFR SLP027
P0002 T10111017 $





000
SAUS41 KPHI 241252
MTRACY
SPECI KACY 241250Z 03010KT 8SM OVC004 02/01 A2950 RMK AO2
RAE33UPB08E12B33E36 P0001





000
SAUS41 KPHI 241155
MTR12N
METAR K12N 241154Z AUTO VRB04KT M01/M02 A2961 RMK AO1 PRESFR SLP038
P0004 60064 70068 T10111017 11011 21011 58044 $





000
SAUS41 KPHI 241155
MTRACY
METAR KACY 241154Z 03013KT 6SM -RA BR OVC006 02/02 A2955 RMK AO2
RAE27B46UPB27E36 SLP007 P0010 60128 70149 T00220017 10022 20011
58033





000
SAUS41 KPHI 241118
MTRACY
SPECI KACY 241115Z 06012KT 3SM -RA BR BKN005 OVC020 02/01 A2956 RMK
AO2 PRESFR P0009 T00170011





000
SAUS41 KPHI 241109
MTRACY
SPECI KACY 241107Z 05011G19KT 2 1/2SM RA BR BKN005 OVC022 02/01
A2957 RMK AO2 PRESFR P0008 T00170011





000
SAUS41 KPHI 241055
MTR12N
METAR K12N 241054Z AUTO 00000KT M01/M02 A2966 RMK AO1 SLP054 P0007
T10111017





000
SAUS41 KPHI 241055
MTRACY
METAR KACY 241054Z 05013KT 1 3/4SM +RA BR SCT004 BKN026 OVC038 02/01
A2959 RMK AO2 PRESFR SLP019 P0033 T00170006





000
SAUS41 KPHI 241041
MTRACY
SPECI KACY 241038Z 05012KT 3SM RA BR FEW005 BKN026 OVC036 01/01
A2961 RMK AO2 PRESFR P0027 T00110006





000
SAUS41 KPHI 241031
MTRACY
SPECI KACY 241030Z 03011KT 2 1/2SM RA BR SCT005 BKN022 OVC034 01/01
A2962 RMK AO2 P0025 T00110006





000
SAUS41 KPHI 241018
MTRACY
SPECI KACY 241016Z 36011KT 1 3/4SM +RA BR OVC005 01/01 A2966 RMK AO2
P0012 T00110006





000
SAUS41 KPHI 240955
MTRACY
METAR KACY 240954Z 02009KT 3SM +RA BR OVC005 02/01 A2964 RMK AO2 CIG
004V009 SLP038 P0028 T00170006





000
SAUS41 KPHI 240955
MTR12N
METAR K12N 240954Z AUTO 00000KT M01/M02 A2970 RMK AO1 SLP068 P0011
T10111017





000
SAUS41 KPHI 240955
MTRACY
METAR KACY 240954Z 02009KT 3SM +RA BR OVC005 02/01 A2964 RMK AO2 CIG
004V009 SLP038 P0028 T00170006





000
SAUS41 KPHI 240955
MTR12N
METAR K12N 240954Z AUTO 00000KT M01/M02 A2970 RMK AO1 SLP068 P0011
T10111017





000
SAUS41 KPHI 240954
MTRACY
SPECI KACY 240951Z 01010KT 3SM RA BR OVC005 02/01 A2965 RMK AO2
P0027





000
SAUS41 KPHI 240954
MTRACY
SPECI KACY 240951Z 01010KT 3SM RA BR OVC005 02/01 A2965 RMK AO2
P0027





000
SAUS41 KPHI 240912
MTRACY
SPECI KACY 240910Z 04011KT 2 1/2SM +RA BR OVC005 02/01 A2967 RMK AO2
P0005 T00170006





000
SAUS41 KPHI 240905
MTRACY
SPECI KACY 240902Z 05012KT 3SM +RA BR OVC004 02/01 A2967 RMK AO2
P0002 T00170006





000
SAUS41 KPHI 240857
MTRACY
METAR KACY 240854Z 06011KT 2 1/2SM RA BR OVC004 02/01 A2968 RMK AO2
SLP050 P0027 60057 T00170006 58049





000
SAUS41 KPHI 240855
MTR12N
METAR K12N 240854Z AUTO 00000KT M01/M02 A2974 RMK AO1 SLP083 P0019
60042 T10111017 58043





000
SAUS41 KPHI 240803
MTRACY
SPECI KACY 240802Z 05011G19KT 2 1/2SM +RA BR OVC004 01/01 A2972 RMK
AO2 PRESFR P0004 T00110006





000
SAUS41 KPHI 240755
MTR12N
METAR K12N 240754Z AUTO 00000KT M01/M02 A2980 RMK AO1 SLP100 P0017
T10111017





000
SAUS41 KPHI 240755
MTRACY
METAR KACY 240754Z 05013G19KT 3SM RA BR OVC004 01/01 A2974 RMK AO2
PRESFR SLP070 P0019 T00110006





000
SAUS41 KPHI 240708
MTRACY
SPECI KACY 240707Z 06009KT 3SM RA BR OVC003 01/01 A2980 RMK AO2
PRESFR P0004 T00110006





000
SAUS41 KPHI 240657
MTRACY
METAR KACY 240654Z 07009KT 2 1/2SM RA BR BKN003 OVC021 01/00 A2982
RMK AO2 SLP100 P0011 T00110000





000
SAUS41 KPHI 240655
MTR12N
METAR K12N 240654Z AUTO 00000KT M01/M02 A2985 RMK AO1 SLP118 P0006
T10111017





000
SAUS41 KPHI 240652
MTRACY
SPECI KACY 240650Z 07008KT 2 1/2SM RA BR BKN003 OVC021 01/01 A2983
RMK AO2 PRESFR P0010





000
SAUS41 KPHI 240643
MTRACY
SPECI KACY 240642Z 06008KT 3SM RA BR BKN003 BKN007 OVC035 01/01
A2984 RMK AO2 P0009 T00110006





000
SAUS41 KPHI 240636
MTRACY
SPECI KACY 240633Z 05007KT 2 1/2SM RA BR BKN003 BKN008 OVC043 01/01
A2985 RMK AO2 P0007 T00110006





000
SAUS41 KPHI 240624
MTRACY
SPECI KACY 240621Z 05007KT 2 1/2SM -RA BR FEW003 BKN047 OVC055 01/01
A2985 RMK AO2 P0006 T00110006





000
SAUS41 KPHI 240610
MTRACY
SPECI KACY 240607Z 06006KT 2SM RA BR BKN049 OVC055 01/01 A2987 RMK
AO2 P0003 T00110006





000
SAUS41 KPHI 240556
MTRACY
METAR KACY 240554Z 07005KT 1 3/4SM RA BR FEW038 OVC046 01/00 A2988
RMK AO2 SLP119 P0007 60021 T00110000 10022 20006 58057





000
SAUS41 KPHI 240555
MTR12N
METAR K12N 240554Z AUTO 00000KT M01/M02 A2987 RMK AO1 SLP126 P0004
60004 T10111017 10000 21022 58038





000
SAUS41 KPHI 240526
MTRACY
SPECI KACY 240524Z 1 1/2SM -RA BR FEW030 OVC042 01/01 A2993 RMK AO2
P0004 T00060006





000
SAUS41 KPHI 240516
MTRACY
SPECI KACY 240514Z 1 1/4SM -RA BR OVC044 01/01 A2993 RMK AO2 P0003
T00060006





000
SAUS41 KPHI 240457
MTRACY
METAR KACY 240454Z 00000KT 1 3/4SM -RA BR BKN042 OVC060 01/01 A2996
RMK AO2 SLP147 P0006 T00110006 400391072





000
SAUS41 KPHI 240456
MTR12N
METAR K12N 240454Z AUTO 21005KT M01/M03 A2994 RMK AO1 SLP150
T10061028 400171106





000
SAUS41 KPHI 240439
MTRACY
SPECI KACY 240436Z 06004KT 1 1/2SM -RA BR OVC060 01/00 A2997 RMK AO2
P0004 T00060000





000
SAUS41 KPHI 240423
MTRACY
SPECI KACY 240421Z 06003KT 2 1/2SM -RA BR OVC065 01/00 A2998 RMK AO2
P0002 T00110000





000
SAUS41 KPHI 240355
MTRACY
METAR KACY 240354Z 00000KT 4SM -RA BR SCT035 SCT043 OVC055 02/01
A3000 RMK AO2 PRESFR SLP159 P0005 T00170006





000
SAUS41 KPHI 240355
MTR12N
METAR K12N 240354Z AUTO 22005KT 00/M04 A2997 RMK AO1 SLP161
T00001039





    US Dept of Commerce
    National Oceanic and Atmospheric Administration
    National Weather Service
    1325 East West Highway
    Silver Spring, MD 20910
    Page Author: NWS Internet Services Team
Disclaimer
Information Quality
Credits
Glossary
Privacy Policy
Freedom of Information Act (FOIA)
About Us
Career Opportunities